sensor_id;sensor_type;location;lat;lon;timestamp;pressure;altitude;pressure_sealevel;temperature;humidity
55291;BME280;41155;39.768;2.712;2023-04-28T00:01:41;101355.13;;;20.16;56.95
55291;BME280;41155;39.768;2.712;2023-04-28T00:04:07;101352.22;;;19.93;57.79
55291;BME280;41155;39.768;2.712;2023-04-28T00:06:32;101297.06;;;19.43;57.50
55291;BME280;41155;39.768;2.712;2023-04-28T00:08:58;101354.09;;;19.79;57.58
55291;BME280;41155;39.768;2.712;2023-04-28T00:11:26;101370.16;;;19.85;57.20
55291;BME280;41155;39.768;2.712;2023-04-28T00:13:52;101368.50;;;19.84;57.15
55291;BME280;41155;39.768;2.712;2023-04-28T00:16:17;101362.88;;;19.76;57.26
55291;BME280;41155;39.768;2.712;2023-04-28T00:18:43;101341.63;;;19.06;59.14
55291;BME280;41155;39.768;2.712;2023-04-28T00:21:08;101355.97;;;19.22;58.89
55291;BME280;41155;39.768;2.712;2023-04-28T00:23:34;101367.66;;;19.46;58.07
55291;BME280;41155;39.768;2.712;2023-04-28T00:25:59;101358.94;;;19.44;58.51
55291;BME280;41155;39.768;2.712;2023-04-28T00:28:25;101352.41;;;19.40;58.39
55291;BME280;41155;39.768;2.712;2023-04-28T00:30:51;101357.44;;;19.52;58.31
55291;BME280;41155;39.768;2.712;2023-04-28T00:33:17;101327.47;;;19.23;58.37
55291;BME280;41155;39.768;2.712;2023-04-28T00:35:42;101344.94;;;19.46;58.41
55291;BME280;41155;39.768;2.712;2023-04-28T00:38:08;101354.81;;;19.66;58.07
55291;BME280;41155;39.768;2.712;2023-04-28T00:40:34;101348.50;;;19.46;58.19
55291;BME280;41155;39.768;2.712;2023-04-28T00:43:00;101349.97;;;19.38;58.83
55291;BME280;41155;39.768;2.712;2023-04-28T00:45:25;101338.34;;;19.47;58.71
55291;BME280;41155;39.768;2.712;2023-04-28T00:47:51;101331.56;;;19.44;58.42
55291;BME280;41155;39.768;2.712;2023-04-28T00:50:20;101327.47;;;19.41;58.67
55291;BME280;41155;39.768;2.712;2023-04-28T00:52:46;101319.09;;;19.14;59.58
55291;BME280;41155;39.768;2.712;2023-04-28T00:55:14;101328.44;;;19.32;59.53
55291;BME280;41155;39.768;2.712;2023-04-28T00:57:41;101316.59;;;19.36;59.19
55291;BME280;41155;39.768;2.712;2023-04-28T01:00:07;101315.03;;;19.30;59.01
55291;BME280;41155;39.768;2.712;2023-04-28T01:02:34;101321.97;;;19.23;59.07
55291;BME280;41155;39.768;2.712;2023-04-28T01:05:00;101301.38;;;19.06;58.39
55291;BME280;41155;39.768;2.712;2023-04-28T01:07:26;101325.63;;;19.37;57.25
55291;BME280;41155;39.768;2.712;2023-04-28T01:09:52;101278.03;;;18.95;57.68
55291;BME280;41155;39.768;2.712;2023-04-28T01:12:18;101305.72;;;19.12;57.40
55291;BME280;41155;39.768;2.712;2023-04-28T01:14:43;101325.78;;;19.27;57.36
55291;BME280;41155;39.768;2.712;2023-04-28T01:17:09;101326.59;;;19.27;57.01
55291;BME280;41155;39.768;2.712;2023-04-28T01:19:35;101326.28;;;19.29;57.17
55291;BME280;41155;39.768;2.712;2023-04-28T01:22:01;101300.41;;;18.97;57.81
55291;BME280;41155;39.768;2.712;2023-04-28T01:24:26;101293.38;;;18.91;57.77
55291;BME280;41155;39.768;2.712;2023-04-28T01:26:52;101325.91;;;19.16;57.86
55291;BME280;41155;39.768;2.712;2023-04-28T01:29:17;101318.72;;;19.20;57.61
55291;BME280;41155;39.768;2.712;2023-04-28T01:31:43;101309.75;;;19.15;57.62
55291;BME280;41155;39.768;2.712;2023-04-28T01:34:08;101323.03;;;19.27;57.25
55291;BME280;41155;39.768;2.712;2023-04-28T01:36:34;101327.63;;;19.31;57.47
55291;BME280;41155;39.768;2.712;2023-04-28T01:38:59;101319.34;;;19.36;57.13
55291;BME280;41155;39.768;2.712;2023-04-28T01:41:25;101299.13;;;19.13;57.33
55291;BME280;41155;39.768;2.712;2023-04-28T01:43:50;101318.72;;;19.20;57.85
55291;BME280;41155;39.768;2.712;2023-04-28T01:46:16;101328.28;;;19.23;58.08
55291;BME280;41155;39.768;2.712;2023-04-28T01:48:41;101321.38;;;19.07;58.59
55291;BME280;41155;39.768;2.712;2023-04-28T01:51:07;101298.91;;;18.86;58.98
55291;BME280;41155;39.768;2.712;2023-04-28T01:53:32;101313.22;;;19.02;58.82
55291;BME280;41155;39.768;2.712;2023-04-28T01:55:58;101316.72;;;19.07;58.73
55291;BME280;41155;39.768;2.712;2023-04-28T01:58:24;101322.63;;;19.14;58.67
55291;BME280;41155;39.768;2.712;2023-04-28T02:00:49;101311.78;;;19.09;58.62
55291;BME280;41155;39.768;2.712;2023-04-28T02:03:15;101318.22;;;19.18;58.42
55291;BME280;41155;39.768;2.712;2023-04-28T02:05:40;101321.25;;;19.17;58.48
55291;BME280;41155;39.768;2.712;2023-04-28T02:08:06;101332.06;;;19.27;58.55
55291;BME280;41155;39.768;2.712;2023-04-28T02:10:31;101278.69;;;19.06;58.08
55291;BME280;41155;39.768;2.712;2023-04-28T02:12:57;101299.28;;;19.22;57.55
55291;BME280;41155;39.768;2.712;2023-04-28T02:15:22;101307.69;;;19.26;57.66
55291;BME280;41155;39.768;2.712;2023-04-28T02:17:48;101311.63;;;19.19;57.59
55291;BME280;41155;39.768;2.712;2023-04-28T02:20:13;101285.66;;;18.98;57.48
55291;BME280;41155;39.768;2.712;2023-04-28T02:22:39;101295.84;;;19.11;57.65
55291;BME280;41155;39.768;2.712;2023-04-28T02:25:06;101301.00;;;19.18;57.66
55291;BME280;41155;39.768;2.712;2023-04-28T02:27:31;101278.91;;;18.90;58.41
55291;BME280;41155;39.768;2.712;2023-04-28T02:29:57;101299.63;;;18.96;58.71
55291;BME280;41155;39.768;2.712;2023-04-28T02:32:22;101286.13;;;18.81;58.99
55291;BME280;41155;39.768;2.712;2023-04-28T02:34:52;101298.34;;;18.89;58.68
55291;BME280;41155;39.768;2.712;2023-04-28T02:37:18;101270.59;;;18.77;58.92
55291;BME280;41155;39.768;2.712;2023-04-28T02:39:44;101292.63;;;18.85;58.90
55291;BME280;41155;39.768;2.712;2023-04-28T02:42:09;101278.72;;;18.82;58.77
55291;BME280;41155;39.768;2.712;2023-04-28T02:44:35;101234.81;;;18.49;58.71
55291;BME280;41155;39.768;2.712;2023-04-28T02:47:00;101287.31;;;18.75;59.03
55291;BME280;41155;39.768;2.712;2023-04-28T02:49:26;101306.44;;;18.75;59.09
55291;BME280;41155;39.768;2.712;2023-04-28T02:51:51;101310.16;;;18.84;58.81
55291;BME280;41155;39.768;2.712;2023-04-28T02:54:17;101309.81;;;18.91;58.64
55291;BME280;41155;39.768;2.712;2023-04-28T02:56:52;101309.00;;;18.90;58.55
55291;BME280;41155;39.768;2.712;2023-04-28T02:59:17;101308.53;;;18.83;59.00
55291;BME280;41155;39.768;2.712;2023-04-28T03:01:43;101300.09;;;18.26;60.57
55291;BME280;41155;39.768;2.712;2023-04-28T03:04:08;101306.41;;;18.51;59.85
55291;BME280;41155;39.768;2.712;2023-04-28T03:06:34;101308.97;;;18.13;60.96
55291;BME280;41155;39.768;2.712;2023-04-28T03:08:59;101312.78;;;18.17;61.50
55291;BME280;41155;39.768;2.712;2023-04-28T03:11:24;101291.22;;;17.81;62.06
55291;BME280;41155;39.768;2.712;2023-04-28T03:13:50;101313.63;;;17.78;62.84
55291;BME280;41155;39.768;2.712;2023-04-28T03:16:15;101319.56;;;17.91;62.30
55291;BME280;41155;39.768;2.712;2023-04-28T03:18:41;101315.72;;;17.92;62.74
55291;BME280;41155;39.768;2.712;2023-04-28T03:21:06;101317.31;;;17.98;62.51
55291;BME280;41155;39.768;2.712;2023-04-28T03:23:32;101306.63;;;18.01;62.43
55291;BME280;41155;39.768;2.712;2023-04-28T03:25:57;101307.91;;;18.09;62.01
55291;BME280;41155;39.768;2.712;2023-04-28T03:28:23;101312.69;;;18.22;61.32
55291;BME280;41155;39.768;2.712;2023-04-28T03:30:49;101329.81;;;18.33;61.16
55291;BME280;41155;39.768;2.712;2023-04-28T03:33:14;101330.56;;;18.44;60.89
55291;BME280;41155;39.768;2.712;2023-04-28T03:35:40;101327.22;;;18.47;60.47
55291;BME280;41155;39.768;2.712;2023-04-28T03:38:05;101330.25;;;18.45;60.71
55291;BME280;41155;39.768;2.712;2023-04-28T03:40:31;101328.44;;;18.36;60.77
55291;BME280;41155;39.768;2.712;2023-04-28T03:42:56;101321.09;;;18.31;60.82
55291;BME280;41155;39.768;2.712;2023-04-28T03:45:22;101313.38;;;18.09;61.74
55291;BME280;41155;39.768;2.712;2023-04-28T03:47:48;101314.72;;;18.12;61.63
55291;BME280;41155;39.768;2.712;2023-04-28T03:50:13;101309.50;;;18.15;61.38
55291;BME280;41155;39.768;2.712;2023-04-28T03:52:39;101317.63;;;18.25;61.01
55291;BME280;41155;39.768;2.712;2023-04-28T03:55:04;101316.13;;;18.38;60.74
55291;BME280;41155;39.768;2.712;2023-04-28T03:57:30;101319.66;;;18.39;60.45
55291;BME280;41155;39.768;2.712;2023-04-28T03:59:55;101320.53;;;18.34;60.58
55291;BME280;41155;39.768;2.712;2023-04-28T04:02:21;101320.78;;;18.38;60.48
55291;BME280;41155;39.768;2.712;2023-04-28T04:04:46;101318.53;;;18.40;60.24
55291;BME280;41155;39.768;2.712;2023-04-28T04:07:12;101290.31;;;18.20;59.54
55291;BME280;41155;39.768;2.712;2023-04-28T04:09:38;101299.34;;;18.21;59.54
55291;BME280;41155;39.768;2.712;2023-04-28T04:12:04;101314.78;;;18.36;59.60
55291;BME280;41155;39.768;2.712;2023-04-28T04:14:30;101323.78;;;18.36;59.79
55291;BME280;41155;39.768;2.712;2023-04-28T04:16:56;101330.72;;;18.28;60.25
55291;BME280;41155;39.768;2.712;2023-04-28T04:19:22;101314.50;;;18.08;60.48
55291;BME280;41155;39.768;2.712;2023-04-28T04:21:51;101303.25;;;17.80;61.34
55291;BME280;41155;39.768;2.712;2023-04-28T04:24:17;101317.31;;;17.98;61.40
55291;BME280;41155;39.768;2.712;2023-04-28T04:26:42;101306.78;;;18.15;61.02
55291;BME280;41155;39.768;2.712;2023-04-28T04:29:08;101315.16;;;18.24;60.59
55291;BME280;41155;39.768;2.712;2023-04-28T04:31:33;101311.69;;;18.13;60.75
55291;BME280;41155;39.768;2.712;2023-04-28T04:33:59;101313.28;;;18.19;60.60
55291;BME280;41155;39.768;2.712;2023-04-28T04:36:24;101315.44;;;18.22;60.39
55291;BME280;41155;39.768;2.712;2023-04-28T04:38:50;101313.81;;;18.21;60.24
55291;BME280;41155;39.768;2.712;2023-04-28T04:41:19;101268.00;;;17.79;60.72
55291;BME280;41155;39.768;2.712;2023-04-28T04:43:45;101308.50;;;18.06;60.60
55291;BME280;41155;39.768;2.712;2023-04-28T04:46:10;101291.94;;;17.92;60.75
55291;BME280;41155;39.768;2.712;2023-04-28T04:48:36;101302.84;;;17.97;60.92
55291;BME280;41155;39.768;2.712;2023-04-28T04:51:01;101303.91;;;17.96;60.79
55291;BME280;41155;39.768;2.712;2023-04-28T04:53:27;101294.41;;;17.94;60.76
55291;BME280;41155;39.768;2.712;2023-04-28T04:55:52;101286.44;;;17.97;60.78
55291;BME280;41155;39.768;2.712;2023-04-28T04:58:18;101304.22;;;17.95;60.90
55291;BME280;41155;39.768;2.712;2023-04-28T05:00:43;101293.44;;;17.79;60.72
55291;BME280;41155;39.768;2.712;2023-04-28T05:03:09;101305.53;;;17.63;61.39
55291;BME280;41155;39.768;2.712;2023-04-28T05:05:34;101279.69;;;17.50;61.31
55291;BME280;41155;39.768;2.712;2023-04-28T05:08:00;101313.38;;;17.30;62.58
55291;BME280;41155;39.768;2.712;2023-04-28T05:10:26;101296.59;;;17.52;61.89
55291;BME280;41155;39.768;2.712;2023-04-28T05:12:52;101306.16;;;17.50;62.13
55291;BME280;41155;39.768;2.712;2023-04-28T05:15:17;101302.28;;;17.16;63.36
55291;BME280;41155;39.768;2.712;2023-04-28T05:17:43;101280.88;;;17.34;62.44
55291;BME280;41155;39.768;2.712;2023-04-28T05:20:08;101303.56;;;17.69;62.07
55291;BME280;41155;39.768;2.712;2023-04-28T05:22:34;101301.63;;;17.74;61.97
55291;BME280;41155;39.768;2.712;2023-04-28T05:24:59;101294.25;;;17.80;61.97
55291;BME280;41155;39.768;2.712;2023-04-28T05:27:25;101301.50;;;17.95;61.25
55291;BME280;41155;39.768;2.712;2023-04-28T05:29:50;101303.91;;;17.96;61.41
55291;BME280;41155;39.768;2.712;2023-04-28T05:32:16;101296.22;;;18.03;60.84
55291;BME280;41155;39.768;2.712;2023-04-28T05:34:41;101301.19;;;17.96;60.48
55291;BME280;41155;39.768;2.712;2023-04-28T05:37:07;101318.00;;;17.79;61.17
55291;BME280;41155;39.768;2.712;2023-04-28T05:39:32;101306.00;;;17.70;60.98
55291;BME280;41155;39.768;2.712;2023-04-28T05:41:57;101286.94;;;17.65;61.46
55291;BME280;41155;39.768;2.712;2023-04-28T05:44:23;101336.44;;;17.98;61.09
55291;BME280;41155;39.768;2.712;2023-04-28T05:46:49;101335.00;;;18.05;60.55
55291;BME280;41155;39.768;2.712;2023-04-28T05:49:14;101309.19;;;17.88;60.77
55291;BME280;41155;39.768;2.712;2023-04-28T05:51:40;101327.97;;;17.99;61.22
55291;BME280;41155;39.768;2.712;2023-04-28T05:54:05;101331.00;;;17.93;61.37
55291;BME280;41155;39.768;2.712;2023-04-28T05:56:31;101321.03;;;18.07;61.26
55291;BME280;41155;39.768;2.712;2023-04-28T05:58:57;101304.19;;;18.00;61.09
55291;BME280;41155;39.768;2.712;2023-04-28T06:01:23;101293.97;;;18.11;60.08
55291;BME280;41155;39.768;2.712;2023-04-28T06:03:48;101321.53;;;18.43;59.26
55291;BME280;41155;39.768;2.712;2023-04-28T06:06:14;101299.47;;;18.35;58.68
55291;BME280;41155;39.768;2.712;2023-04-28T06:08:40;101328.41;;;18.41;59.04
55291;BME280;41155;39.768;2.712;2023-04-28T06:11:06;101338.88;;;18.58;58.89
55291;BME280;41155;39.768;2.712;2023-04-28T06:13:31;101311.69;;;18.42;58.89
55291;BME280;41155;39.768;2.712;2023-04-28T06:15:57;101348.28;;;18.76;59.02
55291;BME280;41155;39.768;2.712;2023-04-28T06:18:23;101333.06;;;18.64;58.72
55291;BME280;41155;39.768;2.712;2023-04-28T06:20:49;101349.34;;;18.80;58.60
55291;BME280;41155;39.768;2.712;2023-04-28T06:23:14;101348.75;;;18.83;58.68
55291;BME280;41155;39.768;2.712;2023-04-28T06:25:40;101312.19;;;18.73;58.33
55291;BME280;41155;39.768;2.712;2023-04-28T06:28:06;101330.34;;;18.88;58.40
55291;BME280;41155;39.768;2.712;2023-04-28T06:30:33;101350.47;;;19.22;57.96
55291;BME280;41155;39.768;2.712;2023-04-28T06:32:58;101341.28;;;19.12;58.20
55291;BME280;41155;39.768;2.712;2023-04-28T06:35:24;101333.84;;;19.18;57.52
55291;BME280;41155;39.768;2.712;2023-04-28T06:37:50;101348.13;;;19.34;57.52
55291;BME280;41155;39.768;2.712;2023-04-28T06:40:15;101351.59;;;19.39;57.30
55291;BME280;41155;39.768;2.712;2023-04-28T06:42:41;101353.09;;;19.51;57.14
55291;BME280;41155;39.768;2.712;2023-04-28T06:45:07;101349.38;;;19.60;56.62
55291;BME280;41155;39.768;2.712;2023-04-28T06:47:32;101336.19;;;19.68;56.56
55291;BME280;41155;39.768;2.712;2023-04-28T06:49:58;101362.22;;;19.84;56.61
55291;BME280;41155;39.768;2.712;2023-04-28T06:52:23;101357.59;;;19.98;56.21
55291;BME280;41155;39.768;2.712;2023-04-28T06:54:49;101351.09;;;19.94;56.03
55291;BME280;41155;39.768;2.712;2023-04-28T06:57:16;101361.66;;;20.01;56.05
55291;BME280;41155;39.768;2.712;2023-04-28T06:59:41;101372.91;;;20.18;55.69
55291;BME280;41155;39.768;2.712;2023-04-28T07:02:09;101375.28;;;20.39;55.34
55291;BME280;41155;39.768;2.712;2023-04-28T07:04:35;101371.66;;;20.43;55.07
55291;BME280;41155;39.768;2.712;2023-04-28T07:07:01;101353.56;;;20.42;54.73
55291;BME280;41155;39.768;2.712;2023-04-28T07:09:27;101335.19;;;20.43;54.80
55291;BME280;41155;39.768;2.712;2023-04-28T07:11:52;101360.72;;;20.71;54.43
55291;BME280;41155;39.768;2.712;2023-04-28T07:14:18;101364.09;;;20.82;54.04
55291;BME280;41155;39.768;2.712;2023-04-28T07:16:43;101361.47;;;20.90;53.41
55291;BME280;41155;39.768;2.712;2023-04-28T07:19:09;101365.00;;;21.05;52.85
55291;BME280;41155;39.768;2.712;2023-04-28T07:21:34;101336.94;;;21.08;51.96
55291;BME280;41155;39.768;2.712;2023-04-28T07:24:00;101359.50;;;21.32;51.17
55291;BME280;41155;39.768;2.712;2023-04-28T07:26:26;101329.75;;;21.12;50.41
55291;BME280;41155;39.768;2.712;2023-04-28T07:28:51;101363.16;;;21.41;50.26
55291;BME280;41155;39.768;2.712;2023-04-28T07:31:16;101369.91;;;21.72;49.40
55291;BME280;41155;39.768;2.712;2023-04-28T07:33:42;101344.66;;;21.70;48.61
55291;BME280;41155;39.768;2.712;2023-04-28T07:36:08;101366.53;;;21.97;48.09
55291;BME280;41155;39.768;2.712;2023-04-28T07:38:34;101384.25;;;22.27;46.98
55291;BME280;41155;39.768;2.712;2023-04-28T07:41:01;101393.34;;;22.28;47.04
55291;BME280;41155;39.768;2.712;2023-04-28T07:43:27;101399.13;;;22.49;45.89
55291;BME280;41155;39.768;2.712;2023-04-28T07:45:52;101404.34;;;22.59;45.78
55291;BME280;41155;39.768;2.712;2023-04-28T07:48:17;101406.06;;;22.77;44.56
55291;BME280;41155;39.768;2.712;2023-04-28T07:50:43;101395.53;;;22.79;44.20
55291;BME280;41155;39.768;2.712;2023-04-28T07:53:09;101401.75;;;22.94;43.91
55291;BME280;41155;39.768;2.712;2023-04-28T07:55:34;101406.97;;;22.95;44.10
55291;BME280;41155;39.768;2.712;2023-04-28T07:58:00;101422.44;;;23.22;42.87
55291;BME280;41155;39.768;2.712;2023-04-28T08:00:26;101418.91;;;23.31;42.14
55291;BME280;41155;39.768;2.712;2023-04-28T08:02:51;101416.03;;;23.44;41.56
55291;BME280;41155;39.768;2.712;2023-04-28T08:05:17;101434.25;;;23.72;41.41
55291;BME280;41155;39.768;2.712;2023-04-28T08:07:42;101426.00;;;23.89;41.55
55291;BME280;41155;39.768;2.712;2023-04-28T08:10:11;101411.38;;;24.06;40.39
55291;BME280;41155;39.768;2.712;2023-04-28T08:12:37;101428.41;;;24.34;40.47
55291;BME280;41155;39.768;2.712;2023-04-28T08:15:03;101411.19;;;24.46;40.12
55291;BME280;41155;39.768;2.712;2023-04-28T08:17:29;101422.06;;;24.60;40.00
55291;BME280;41155;39.768;2.712;2023-04-28T08:19:54;101433.69;;;24.74;39.87
55291;BME280;41155;39.768;2.712;2023-04-28T08:22:20;101428.00;;;24.70;39.98
55291;BME280;41155;39.768;2.712;2023-04-28T08:24:45;101410.47;;;24.75;39.28
55291;BME280;41155;39.768;2.712;2023-04-28T08:27:11;101429.19;;;24.99;38.86
55291;BME280;41155;39.768;2.712;2023-04-28T08:29:37;101419.47;;;24.93;38.44
55291;BME280;41155;39.768;2.712;2023-04-28T08:32:04;101430.13;;;25.12;38.45
55291;BME280;41155;39.768;2.712;2023-04-28T08:34:31;101426.50;;;25.29;37.96
55291;BME280;41155;39.768;2.712;2023-04-28T08:36:57;101419.66;;;25.56;37.47
55291;BME280;41155;39.768;2.712;2023-04-28T08:39:23;101415.34;;;25.67;37.16
55291;BME280;41155;39.768;2.712;2023-04-28T08:41:50;101416.38;;;25.83;36.64
55291;BME280;41155;39.768;2.712;2023-04-28T08:44:16;101422.88;;;25.87;36.81
55291;BME280;41155;39.768;2.712;2023-04-28T08:46:42;101424.59;;;25.71;36.82
55291;BME280;41155;39.768;2.712;2023-04-28T08:49:14;101418.59;;;25.69;36.82
55291;BME280;41155;39.768;2.712;2023-04-28T08:51:51;101420.88;;;25.67;36.95
55291;BME280;41155;39.768;2.712;2023-04-28T08:54:20;101425.63;;;25.66;36.71
55291;BME280;41155;39.768;2.712;2023-04-28T08:56:47;101429.84;;;25.64;36.82
55291;BME280;41155;39.768;2.712;2023-04-28T08:59:13;101431.66;;;25.60;37.14
55291;BME280;41155;39.768;2.712;2023-04-28T09:01:38;101407.16;;;25.29;37.35
55291;BME280;41155;39.768;2.712;2023-04-28T09:04:04;101443.59;;;25.52;37.27
55291;BME280;41155;39.768;2.712;2023-04-28T09:06:37;101434.97;;;25.53;36.78
55291;BME280;41155;39.768;2.712;2023-04-28T09:09:35;101418.78;;;25.43;36.75
55291;BME280;41155;39.768;2.712;2023-04-28T09:12:02;101437.97;;;25.69;36.84
55291;BME280;41155;39.768;2.712;2023-04-28T09:14:30;101435.09;;;25.86;36.39
55291;BME280;41155;39.768;2.712;2023-04-28T09:16:57;101422.44;;;25.98;36.39
55291;BME280;41155;39.768;2.712;2023-04-28T09:19:23;101417.22;;;25.84;35.95
55291;BME280;41155;39.768;2.712;2023-04-28T09:21:51;101403.31;;;25.92;35.43
55291;BME280;41155;39.768;2.712;2023-04-28T09:24:36;101400.72;;;26.08;35.18
55291;BME280;41155;39.768;2.712;2023-04-28T09:27:08;101407.53;;;26.11;35.73
55291;BME280;41155;39.768;2.712;2023-04-28T09:29:37;101422.09;;;26.20;35.92
55291;BME280;41155;39.768;2.712;2023-04-28T09:32:16;101440.72;;;26.11;35.72
55291;BME280;41155;39.768;2.712;2023-04-28T09:34:50;101447.16;;;26.03;35.79
55291;BME280;41155;39.768;2.712;2023-04-28T09:37:17;101446.38;;;26.14;36.05
55291;BME280;41155;39.768;2.712;2023-04-28T09:39:49;101449.59;;;26.04;35.75
55291;BME280;41155;39.768;2.712;2023-04-28T09:42:38;101420.75;;;26.05;35.12
55291;BME280;41155;39.768;2.712;2023-04-28T09:45:14;101421.88;;;26.25;35.17
55291;BME280;41155;39.768;2.712;2023-04-28T09:47:44;101420.38;;;26.61;34.89
55291;BME280;41155;39.768;2.712;2023-04-28T09:50:13;101380.38;;;26.71;34.25
55291;BME280;41155;39.768;2.712;2023-04-28T09:52:43;101399.31;;;27.05;33.92
55291;BME280;41155;39.768;2.712;2023-04-28T09:55:11;101408.78;;;27.29;33.16
55291;BME280;41155;39.768;2.712;2023-04-28T09:57:37;101398.41;;;27.26;33.50
55291;BME280;41155;39.768;2.712;2023-04-28T10:00:05;101390.22;;;27.17;34.02
55291;BME280;41155;39.768;2.712;2023-04-28T10:02:34;101395.38;;;27.19;33.64
55291;BME280;41155;39.768;2.712;2023-04-28T10:05:00;101389.41;;;27.17;33.90
55291;BME280;41155;39.768;2.712;2023-04-28T10:07:26;101359.00;;;27.08;33.64
55291;BME280;41155;39.768;2.712;2023-04-28T10:09:52;101383.59;;;27.34;33.17
55291;BME280;41155;39.768;2.712;2023-04-28T10:12:20;101394.81;;;27.25;33.68
55291;BME280;41155;39.768;2.712;2023-04-28T10:14:47;101393.97;;;27.13;33.31
55291;BME280;41155;39.768;2.712;2023-04-28T10:17:22;101385.69;;;27.00;33.34
55291;BME280;41155;39.768;2.712;2023-04-28T10:19:52;101393.19;;;27.00;33.16
55291;BME280;41155;39.768;2.712;2023-04-28T10:27:44;101385.09;;;26.95;33.73
55291;BME280;41155;39.768;2.712;2023-04-28T10:32:39;101399.19;;;27.02;33.46
55291;BME280;41155;39.768;2.712;2023-04-28T10:38:15;101426.66;;;27.07;33.61
55291;BME280;41155;39.768;2.712;2023-04-28T10:40:45;101432.78;;;26.88;34.43
55291;BME280;41155;39.768;2.712;2023-04-28T10:43:13;101435.41;;;26.85;35.02
55291;BME280;41155;39.768;2.712;2023-04-28T10:56:20;101438.53;;;27.81;32.90
55291;BME280;41155;39.768;2.712;2023-04-28T10:58:48;101435.06;;;27.84;32.67
55291;BME280;41155;39.768;2.712;2023-04-28T11:08:54;101430.88;;;27.90;32.11
55291;BME280;41155;39.768;2.712;2023-04-28T11:11:30;101412.47;;;27.98;31.95
55291;BME280;41155;39.768;2.712;2023-04-28T11:16:56;101392.34;;;28.17;31.41
55291;BME280;41155;39.768;2.712;2023-04-28T11:21:57;101390.91;;;28.51;31.25
55291;BME280;41155;39.768;2.712;2023-04-28T11:24:23;101376.22;;;28.67;30.51
55291;BME280;41155;39.768;2.712;2023-04-28T11:26:59;101362.25;;;28.63;31.09
55291;BME280;41155;39.768;2.712;2023-04-28T11:29:38;101351.94;;;28.79;30.79
55291;BME280;41155;39.768;2.712;2023-04-28T11:32:07;101327.19;;;28.74;30.01
55291;BME280;41155;39.768;2.712;2023-04-28T11:34:34;101342.50;;;29.00;30.52
55291;BME280;41155;39.768;2.712;2023-04-28T11:37:00;101347.69;;;29.01;30.69
55291;BME280;41155;39.768;2.712;2023-04-28T11:39:26;101343.13;;;29.09;30.37
55291;BME280;41155;39.768;2.712;2023-04-28T11:41:53;101348.47;;;29.18;30.94
55291;BME280;41155;39.768;2.712;2023-04-28T11:44:20;101341.16;;;29.10;30.63
55291;BME280;41155;39.768;2.712;2023-04-28T11:46:51;101331.06;;;29.21;30.72
55291;BME280;41155;39.768;2.712;2023-04-28T11:49:30;101329.22;;;29.09;30.77
55291;BME280;41155;39.768;2.712;2023-04-28T11:52:03;101331.72;;;28.98;31.80
55291;BME280;41155;39.768;2.712;2023-04-28T11:54:30;101329.50;;;29.04;32.37
55291;BME280;41155;39.768;2.712;2023-04-28T11:56:56;101330.94;;;29.14;30.88
55291;BME280;41155;39.768;2.712;2023-04-28T11:59:35;101325.56;;;29.05;31.63
55291;BME280;41155;39.768;2.712;2023-04-28T12:04:39;101324.06;;;28.60;31.04
55291;BME280;41155;39.768;2.712;2023-04-28T12:07:07;101326.22;;;28.67;31.46
55291;BME280;41155;39.768;2.712;2023-04-28T12:12:29;101314.69;;;28.65;30.47
55291;BME280;41155;39.768;2.712;2023-04-28T12:15:00;101296.66;;;28.58;31.03
55291;BME280;41155;39.768;2.712;2023-04-28T12:17:28;101306.00;;;28.50;31.10
55291;BME280;41155;39.768;2.712;2023-04-28T12:19:54;101291.44;;;28.41;31.10
55291;BME280;41155;39.768;2.712;2023-04-28T12:22:21;101303.91;;;28.63;31.37
55291;BME280;41155;39.768;2.712;2023-04-28T12:27:26;101298.63;;;28.74;30.89
55291;BME280;41155;39.768;2.712;2023-04-28T12:29:53;101300.41;;;28.82;31.18
55291;BME280;41155;39.768;2.712;2023-04-28T12:32:36;101299.34;;;28.71;30.51
55291;BME280;41155;39.768;2.712;2023-04-28T12:35:02;101302.72;;;28.80;30.71
55291;BME280;41155;39.768;2.712;2023-04-28T12:37:29;101287.94;;;28.76;30.77
55291;BME280;41155;39.768;2.712;2023-04-28T12:39:55;101287.22;;;28.79;31.00
55291;BME280;41155;39.768;2.712;2023-04-28T12:42:21;101285.38;;;28.67;31.43
55291;BME280;41155;39.768;2.712;2023-04-28T12:44:48;101289.28;;;28.66;31.28
55291;BME280;41155;39.768;2.712;2023-04-28T12:47:15;101300.47;;;28.70;30.89
55291;BME280;41155;39.768;2.712;2023-04-28T12:49:42;101279.66;;;28.44;31.26
55291;BME280;41155;39.768;2.712;2023-04-28T12:52:08;101278.28;;;28.54;31.06
55291;BME280;41155;39.768;2.712;2023-04-28T12:54:34;101304.50;;;28.88;30.45
55291;BME280;41155;39.768;2.712;2023-04-28T12:57:01;101299.91;;;28.96;30.46
55291;BME280;41155;39.768;2.712;2023-04-28T12:59:27;101298.66;;;29.09;29.58
55291;BME280;41155;39.768;2.712;2023-04-28T13:01:53;101297.91;;;29.12;29.40
55291;BME280;41155;39.768;2.712;2023-04-28T13:04:19;101288.50;;;29.17;29.71
55291;BME280;41155;39.768;2.712;2023-04-28T13:06:45;101291.88;;;29.26;29.62
55291;BME280;41155;39.768;2.712;2023-04-28T13:09:14;101284.09;;;29.35;29.65
55291;BME280;41155;39.768;2.712;2023-04-28T13:11:40;101278.41;;;29.28;28.63
55291;BME280;41155;39.768;2.712;2023-04-28T13:14:06;101283.31;;;29.35;28.81
55291;BME280;41155;39.768;2.712;2023-04-28T13:16:32;101275.75;;;29.35;29.23
55291;BME280;41155;39.768;2.712;2023-04-28T13:18:59;101272.19;;;29.35;28.98
55291;BME280;41155;39.768;2.712;2023-04-28T13:21:25;101263.16;;;29.22;29.04
55291;BME280;41155;39.768;2.712;2023-04-28T13:23:57;101268.63;;;28.99;29.59
55291;BME280;41155;39.768;2.712;2023-04-28T13:26:22;101238.84;;;28.99;30.11
55291;BME280;41155;39.768;2.712;2023-04-28T13:28:50;101267.72;;;29.11;29.42
55291;BME280;41155;39.768;2.712;2023-04-28T13:31:16;101271.81;;;29.01;29.52